sensor_id;sensor_type;location;lat;lon;timestamp;pressure;altitude;pressure_sealevel;temperature;humidity
37202;BME280;37799;52.390;6.136;2024-01-06T00:00:10;100327.91;;;4.04;100.00
37202;BME280;37799;52.390;6.136;2024-01-06T00:02:35;100339.84;;;4.05;100.00
37202;BME280;37799;52.390;6.136;2024-01-06T00:05:01;100341.56;;;4.00;100.00
37202;BME280;37799;52.390;6.136;2024-01-06T00:07:26;100341.66;;;3.93;100.00
37202;BME280;37799;52.390;6.136;2024-01-06T00:09:51;100345.06;;;3.93;100.00
37202;BME280;37799;52.390;6.136;2024-01-06T00:12:17;100350.06;;;4.08;100.00
37202;BME280;37799;52.390;6.136;2024-01-06T00:14:43;100346.78;;;3.88;100.00
37202;BME280;37799;52.390;6.136;2024-01-06T00:17:11;100352.75;;;3.90;100.00
37202;BME280;37799;52.390;6.136;2024-01-06T00:19:36;100361.22;;;4.01;100.00
37202;BME280;37799;52.390;6.136;2024-01-06T00:22:01;100367.19;;;4.05;100.00
37202;BME280;37799;52.390;6.136;2024-01-06T00:24:26;100367.22;;;3.97;100.00
37202;BME280;37799;52.390;6.136;2024-01-06T00:26:52;100373.22;;;3.96;100.00
37202;BME280;37799;52.390;6.136;2024-01-06T00:29:18;100371.50;;;3.97;100.00
37202;BME280;37799;52.390;6.136;2024-01-06T00:31:43;100375.88;;;3.81;100.00
37202;BME280;37799;52.390;6.136;2024-01-06T00:34:08;100377.59;;;3.76;100.00
37202;BME280;37799;52.390;6.136;2024-01-06T00:36:33;100375.88;;;3.79;100.00
37202;BME280;37799;52.390;6.136;2024-01-06T00:38:59;100376.72;;;3.77;100.00
37202;BME280;37799;52.390;6.136;2024-01-06T00:41:24;100374.22;;;3.63;100.00
37202;BME280;37799;52.390;6.136;2024-01-06T00:43:49;100377.66;;;3.64;100.00
37202;BME280;37799;52.390;6.136;2024-01-06T00:46:15;100371.56;;;3.86;100.00
37202;BME280;37799;52.390;6.136;2024-01-06T00:48:40;100369.84;;;3.85;100.00
37202;BME280;37799;52.390;6.136;2024-01-06T00:51:05;100380.06;;;3.94;100.00
37202;BME280;37799;52.390;6.136;2024-01-06T00:53:31;100373.34;;;3.78;100.00
37202;BME280;37799;52.390;6.136;2024-01-06T00:55:56;100382.63;;;3.88;100.00
37202;BME280;37799;52.390;6.136;2024-01-06T00:58:21;100386.13;;;3.78;100.00
37202;BME280;37799;52.390;6.136;2024-01-06T01:00:47;100386.91;;;3.89;100.00
37202;BME280;37799;52.390;6.136;2024-01-06T01:03:12;100384.50;;;3.66;100.00
37202;BME280;37799;52.390;6.136;2024-01-06T01:05:37;100390.44;;;3.70;100.00
37202;BME280;37799;52.390;6.136;2024-01-06T01:08:02;100390.47;;;3.67;100.00
37202;BME280;37799;52.390;6.136;2024-01-06T01:10:28;100395.56;;;3.64;100.00
37202;BME280;37799;52.390;6.136;2024-01-06T01:12:53;100394.75;;;3.59;100.00
37202;BME280;37799;52.390;6.136;2024-01-06T01:15:18;100391.38;;;3.49;100.00
37202;BME280;37799;52.390;6.136;2024-01-06T01:17:44;100399.91;;;3.49;100.00
37202;BME280;37799;52.390;6.136;2024-01-06T01:20:09;100398.16;;;3.65;100.00
37202;BME280;37799;52.390;6.136;2024-01-06T01:22:35;100405.06;;;3.43;100.00
37202;BME280;37799;52.390;6.136;2024-01-06T01:25:00;100404.97;;;3.62;100.00
37202;BME280;37799;52.390;6.136;2024-01-06T01:27:30;100405.91;;;3.44;100.00
37202;BME280;37799;52.390;6.136;2024-01-06T01:29:55;100420.38;;;3.54;100.00
37202;BME280;37799;52.390;6.136;2024-01-06T01:32:23;100416.97;;;3.47;100.00
37202;BME280;37799;52.390;6.136;2024-01-06T01:34:48;100424.69;;;3.44;100.00
37202;BME280;37799;52.390;6.136;2024-01-06T01:37:15;100416.97;;;3.55;100.00
37202;BME280;37799;52.390;6.136;2024-01-06T01:39:40;100423.78;;;3.56;100.00
37202;BME280;37799;52.390;6.136;2024-01-06T01:42:05;100432.31;;;3.57;100.00
37202;BME280;37799;52.390;6.136;2024-01-06T01:44:31;100417.03;;;3.40;100.00
37202;BME280;37799;52.390;6.136;2024-01-06T01:46:56;100430.66;;;3.36;100.00
37202;BME280;37799;52.390;6.136;2024-01-06T01:49:22;100430.69;;;3.31;100.00
37202;BME280;37799;52.390;6.136;2024-01-06T01:51:47;100440.91;;;3.37;100.00
37202;BME280;37799;52.390;6.136;2024-01-06T01:54:14;100440.09;;;3.29;100.00
37202;BME280;37799;52.390;6.136;2024-01-06T01:56:40;100438.34;;;3.40;100.00
37202;BME280;37799;52.390;6.136;2024-01-06T01:59:11;100441.72;;;3.53;100.00
37202;BME280;37799;52.390;6.136;2024-01-06T02:01:37;100445.97;;;3.51;100.00
37202;BME280;37799;52.390;6.136;2024-01-06T02:04:02;100443.47;;;3.31;100.00
37202;BME280;37799;52.390;6.136;2024-01-06T02:06:28;100459.69;;;3.30;100.00
37202;BME280;37799;52.390;6.136;2024-01-06T02:08:53;100457.94;;;3.47;100.00
37202;BME280;37799;52.390;6.136;2024-01-06T02:11:18;100465.66;;;3.41;100.00
37202;BME280;37799;52.390;6.136;2024-01-06T02:13:44;100472.47;;;3.33;100.00
37202;BME280;37799;52.390;6.136;2024-01-06T02:16:09;100468.19;;;3.37;100.00
37202;BME280;37799;52.390;6.136;2024-01-06T02:18:34;100469.03;;;3.43;100.00
37202;BME280;37799;52.390;6.136;2024-01-06T02:21:01;100475.00;;;3.45;100.00
37202;BME280;37799;52.390;6.136;2024-01-06T02:23:27;100482.66;;;3.54;100.00
37202;BME280;37799;52.390;6.136;2024-01-06T02:25:53;100481.00;;;3.41;100.00
37202;BME280;37799;52.390;6.136;2024-01-06T02:28:19;100487.84;;;3.33;100.00
37202;BME280;37799;52.390;6.136;2024-01-06T02:30:44;100486.16;;;3.20;100.00
37202;BME280;37799;52.390;6.136;2024-01-06T02:33:09;100491.25;;;3.20;100.00
37202;BME280;37799;52.390;6.136;2024-01-06T02:35:35;100504.06;;;3.28;100.00
37202;BME280;37799;52.390;6.136;2024-01-06T02:38:00;100504.06;;;3.28;100.00
37202;BME280;37799;52.390;6.136;2024-01-06T02:40:26;100502.38;;;3.17;100.00
37202;BME280;37799;52.390;6.136;2024-01-06T02:42:51;100508.34;;;3.15;100.00
37202;BME280;37799;52.390;6.136;2024-01-06T02:45:16;100510.03;;;3.19;100.00
37202;BME280;37799;52.390;6.136;2024-01-06T02:47:42;100518.59;;;3.13;100.00
37202;BME280;37799;52.390;6.136;2024-01-06T02:50:07;100516.03;;;3.15;100.00
37202;BME280;37799;52.390;6.136;2024-01-06T02:52:33;100527.94;;;3.08;100.00
37202;BME280;37799;52.390;6.136;2024-01-06T02:54:58;100530.50;;;2.96;100.00
37202;BME280;37799;52.390;6.136;2024-01-06T02:57:24;100534.78;;;3.02;100.00
37202;BME280;37799;52.390;6.136;2024-01-06T02:59:49;100533.06;;;3.08;100.00
37202;BME280;37799;52.390;6.136;2024-01-06T03:02:14;100532.19;;;2.99;100.00
37202;BME280;37799;52.390;6.136;2024-01-06T03:04:40;100535.63;;;2.97;100.00
37202;BME280;37799;52.390;6.136;2024-01-06T03:07:05;100538.16;;;2.97;100.00
37202;BME280;37799;52.390;6.136;2024-01-06T03:09:30;100543.28;;;2.96;100.00
37202;BME280;37799;52.390;6.136;2024-01-06T03:11:56;100552.66;;;2.95;100.00
37202;BME280;37799;52.390;6.136;2024-01-06T03:14:21;100543.28;;;2.99;100.00
37202;BME280;37799;52.390;6.136;2024-01-06T03:16:46;100550.97;;;2.91;100.00
37202;BME280;37799;52.390;6.136;2024-01-06T03:19:12;100549.28;;;3.00;100.00
37202;BME280;37799;52.390;6.136;2024-01-06T03:21:37;100556.94;;;2.95;100.00
37202;BME280;37799;52.390;6.136;2024-01-06T03:24:04;100562.06;;;2.89;100.00
37202;BME280;37799;52.390;6.136;2024-01-06T03:26:29;100570.56;;;2.95;100.00
37202;BME280;37799;52.390;6.136;2024-01-06T03:28:54;100574.00;;;2.87;100.00
37202;BME280;37799;52.390;6.136;2024-01-06T03:31:20;100573.13;;;2.83;100.00
37202;BME280;37799;52.390;6.136;2024-01-06T03:33:47;100582.50;;;2.89;100.00
37202;BME280;37799;52.390;6.136;2024-01-06T03:36:13;100581.63;;;2.84;100.00
37202;BME280;37799;52.390;6.136;2024-01-06T03:38:39;100592.72;;;2.84;100.00
37202;BME280;37799;52.390;6.136;2024-01-06T03:41:04;100596.13;;;2.79;100.00
37202;BME280;37799;52.390;6.136;2024-01-06T03:43:29;100599.53;;;2.79;100.00
37202;BME280;37799;52.390;6.136;2024-01-06T03:45:55;100602.94;;;2.84;100.00
37202;BME280;37799;52.390;6.136;2024-01-06T03:48:22;100607.19;;;2.73;100.00
37202;BME280;37799;52.390;6.136;2024-01-06T03:50:48;100603.81;;;2.77;100.00
37202;BME280;37799;52.390;6.136;2024-01-06T03:53:13;100608.03;;;2.71;100.00
37202;BME280;37799;52.390;6.136;2024-01-06T03:55:38;100611.47;;;2.77;100.00
37202;BME280;37799;52.390;6.136;2024-01-06T03:58:04;100622.53;;;2.72;100.00
37202;BME280;37799;52.390;6.136;2024-01-06T04:00:29;100625.09;;;2.75;100.00
37202;BME280;37799;52.390;6.136;2024-01-06T04:02:54;100624.25;;;2.74;100.00
37202;BME280;37799;52.390;6.136;2024-01-06T04:05:19;100625.94;;;2.61;100.00
37202;BME280;37799;52.390;6.136;2024-01-06T04:07:45;100630.16;;;2.58;100.00
37202;BME280;37799;52.390;6.136;2024-01-06T04:10:10;100634.44;;;2.62;100.00
37202;BME280;37799;52.390;6.136;2024-01-06T04:12:35;100643.78;;;2.54;100.00
37202;BME280;37799;52.390;6.136;2024-01-06T04:15:01;100642.97;;;2.67;100.00
37202;BME280;37799;52.390;6.136;2024-01-06T04:17:26;100637.81;;;2.55;100.00
37202;BME280;37799;52.390;6.136;2024-01-06T04:19:52;100645.53;;;2.62;100.00
37202;BME280;37799;52.390;6.136;2024-01-06T04:22:17;100641.28;;;2.69;100.00
37202;BME280;37799;52.390;6.136;2024-01-06T04:24:42;100643.88;;;2.78;100.00
37202;BME280;37799;52.390;6.136;2024-01-06T04:27:08;100643.81;;;2.66;100.00
37202;BME280;37799;52.390;6.136;2024-01-06T04:29:34;100648.03;;;2.58;100.00
37202;BME280;37799;52.390;6.136;2024-01-06T04:32:00;100645.53;;;2.72;100.00
37202;BME280;37799;52.390;6.136;2024-01-06T04:34:25;100649.78;;;2.62;100.00
37202;BME280;37799;52.390;6.136;2024-01-06T04:36:50;100655.75;;;2.67;100.00
37202;BME280;37799;52.390;6.136;2024-01-06T04:39:16;100655.75;;;2.72;100.00
37202;BME280;37799;52.390;6.136;2024-01-06T04:41:41;100655.78;;;2.79;100.00
37202;BME280;37799;52.390;6.136;2024-01-06T04:44:07;100656.66;;;2.75;100.00
37202;BME280;37799;52.390;6.136;2024-01-06T04:46:32;100662.63;;;2.77;100.00
37202;BME280;37799;52.390;6.136;2024-01-06T04:48:58;100664.28;;;2.71;100.00
37202;BME280;37799;52.390;6.136;2024-01-06T04:51:23;100677.06;;;2.63;100.00
37202;BME280;37799;52.390;6.136;2024-01-06T04:53:48;100676.25;;;2.75;100.00
37202;BME280;37799;52.390;6.136;2024-01-06T04:56:13;100677.00;;;2.52;100.00
37202;BME280;37799;52.390;6.136;2024-01-06T04:58:39;100673.59;;;2.52;100.00
37202;BME280;37799;52.390;6.136;2024-01-06T05:01:04;100676.16;;;2.59;100.00
37202;BME280;37799;52.390;6.136;2024-01-06T05:03:30;100671.88;;;2.51;100.00
37202;BME280;37799;52.390;6.136;2024-01-06T05:05:55;100671.03;;;2.53;100.00
37202;BME280;37799;52.390;6.136;2024-01-06T05:08:21;100681.22;;;2.44;100.00
37202;BME280;37799;52.390;6.136;2024-01-06T05:10:48;100674.44;;;2.52;100.00
37202;BME280;37799;52.390;6.136;2024-01-06T05:13:14;100676.16;;;2.52;100.00
37202;BME280;37799;52.390;6.136;2024-01-06T05:15:39;100682.13;;;2.58;100.00
37202;BME280;37799;52.390;6.136;2024-01-06T05:18:05;100688.06;;;2.48;100.00
37202;BME280;37799;52.390;6.136;2024-01-06T05:20:30;100686.38;;;2.50;100.00
37202;BME280;37799;52.390;6.136;2024-01-06T05:22:55;100690.63;;;2.51;100.00
37202;BME280;37799;52.390;6.136;2024-01-06T05:25:21;100697.44;;;2.49;100.00
37202;BME280;37799;52.390;6.136;2024-01-06T05:27:46;100702.50;;;2.39;100.00
37202;BME280;37799;52.390;6.136;2024-01-06T05:30:11;100700.91;;;2.63;100.00
37202;BME280;37799;52.390;6.136;2024-01-06T05:32:37;100706.84;;;2.59;100.00
37202;BME280;37799;52.390;6.136;2024-01-06T05:35:04;100713.63;;;2.48;100.00
37202;BME280;37799;52.390;6.136;2024-01-06T05:37:29;100710.16;;;2.40;100.00
37202;BME280;37799;52.390;6.136;2024-01-06T05:39:55;100711.03;;;2.41;100.00
37202;BME280;37799;52.390;6.136;2024-01-06T05:42:20;100725.41;;;2.26;100.00
37202;BME280;37799;52.390;6.136;2024-01-06T05:44:45;100716.16;;;2.45;100.00
37202;BME280;37799;52.390;6.136;2024-01-06T05:47:11;100724.56;;;2.23;100.00
37202;BME280;37799;52.390;6.136;2024-01-06T05:49:36;100724.66;;;2.44;100.00
37202;BME280;37799;52.390;6.136;2024-01-06T05:52:01;100723.78;;;2.39;100.00
37202;BME280;37799;52.390;6.136;2024-01-06T05:54:27;100728.97;;;2.51;100.00
37202;BME280;37799;52.390;6.136;2024-01-06T05:56:52;100736.59;;;2.47;100.00
37202;BME280;37799;52.390;6.136;2024-01-06T05:59:17;100734.88;;;2.43;100.00
37202;BME280;37799;52.390;6.136;2024-01-06T06:01:43;100733.16;;;2.35;100.00
37202;BME280;37799;52.390;6.136;2024-01-06T06:04:09;100739.91;;;2.30;100.00
37202;BME280;37799;52.390;6.136;2024-01-06T06:06:35;100751.81;;;2.25;100.00
37202;BME280;37799;52.390;6.136;2024-01-06T06:09:00;100752.69;;;2.33;100.00
37202;BME280;37799;52.390;6.136;2024-01-06T06:11:25;100752.69;;;2.30;100.00
37202;BME280;37799;52.390;6.136;2024-01-06T06:13:51;100763.72;;;2.23;100.00
37202;BME280;37799;52.390;6.136;2024-01-06T06:16:16;100762.09;;;2.34;100.00
37202;BME280;37799;52.390;6.136;2024-01-06T06:18:41;100778.25;;;2.32;100.00
37202;BME280;37799;52.390;6.136;2024-01-06T06:21:07;100776.53;;;2.31;100.00
37202;BME280;37799;52.390;6.136;2024-01-06T06:23:33;100778.25;;;2.32;100.00
37202;BME280;37799;52.390;6.136;2024-01-06T06:25:59;100790.31;;;2.54;100.00
37202;BME280;37799;52.390;6.136;2024-01-06T06:28:27;100792.88;;;2.53;100.00
37202;BME280;37799;52.390;6.136;2024-01-06T06:30:52;100803.81;;;2.32;100.00
37202;BME280;37799;52.390;6.136;2024-01-06T06:33:18;100803.84;;;2.35;100.00
37202;BME280;37799;52.390;6.136;2024-01-06T06:35:43;100812.38;;;2.39;100.00
37202;BME280;37799;52.390;6.136;2024-01-06T06:38:08;100817.50;;;2.40;100.00
37202;BME280;37799;52.390;6.136;2024-01-06T06:40:34;100819.13;;;2.30;100.00
37202;BME280;37799;52.390;6.136;2024-01-06T06:42:59;100826.78;;;2.30;100.00
37202;BME280;37799;52.390;6.136;2024-01-06T06:45:24;100824.97;;;2.16;100.00
37202;BME280;37799;52.390;6.136;2024-01-06T06:47:49;100829.94;;;1.99;100.00
37202;BME280;37799;52.390;6.136;2024-01-06T06:50:18;100834.22;;;2.01;100.00
37202;BME280;37799;52.390;6.136;2024-01-06T06:52:45;100836.91;;;2.18;100.00
37202;BME280;37799;52.390;6.136;2024-01-06T06:55:10;100843.66;;;2.10;100.00
37202;BME280;37799;52.390;6.136;2024-01-06T06:57:36;100844.44;;;2.01;100.00
37202;BME280;37799;52.390;6.136;2024-01-06T07:00:01;100847.00;;;2.04;100.00
37202;BME280;37799;52.390;6.136;2024-01-06T07:02:27;100847.88;;;2.08;100.00
37202;BME280;37799;52.390;6.136;2024-01-06T07:04:52;100858.28;;;2.25;100.00
37202;BME280;37799;52.390;6.136;2024-01-06T07:07:18;100862.44;;;2.15;100.00
37202;BME280;37799;52.390;6.136;2024-01-06T07:09:44;100864.03;;;2.04;100.00
37202;BME280;37799;52.390;6.136;2024-01-06T07:12:09;100864.00;;;1.98;100.00
37202;BME280;37799;52.390;6.136;2024-01-06T07:14:34;100866.56;;;1.99;100.00
37202;BME280;37799;52.390;6.136;2024-01-06T07:16:59;100874.25;;;2.04;100.00
37202;BME280;37799;52.390;6.136;2024-01-06T07:19:25;100886.03;;;1.91;100.00
37202;BME280;37799;52.390;6.136;2024-01-06T07:21:50;100881.03;;;1.99;100.00
37202;BME280;37799;52.390;6.136;2024-01-06T07:24:15;100892.13;;;2.05;100.00
37202;BME280;37799;52.390;6.136;2024-01-06T07:26:41;100894.81;;;2.19;100.00
37202;BME280;37799;52.390;6.136;2024-01-06T07:29:06;100887.75;;;1.94;100.00
37202;BME280;37799;52.390;6.136;2024-01-06T07:31:33;100895.47;;;1.95;100.00
37202;BME280;37799;52.390;6.136;2024-01-06T07:33:59;100897.19;;;1.96;100.00
37202;BME280;37799;52.390;6.136;2024-01-06T07:36:24;100900.41;;;1.82;100.00
37202;BME280;37799;52.390;6.136;2024-01-06T07:38:50;100904.56;;;1.70;100.00
37202;BME280;37799;52.390;6.136;2024-01-06T07:41:17;100906.31;;;1.76;100.00
37202;BME280;37799;52.390;6.136;2024-01-06T07:43:42;100909.66;;;1.70;100.00
37202;BME280;37799;52.390;6.136;2024-01-06T07:46:07;100913.06;;;1.69;100.00
37202;BME280;37799;52.390;6.136;2024-01-06T07:48:34;100919.03;;;1.70;100.00
37202;BME280;37799;52.390;6.136;2024-01-06T07:51:01;100927.63;;;1.81;100.00
37202;BME280;37799;52.390;6.136;2024-01-06T07:53:26;100926.06;;;1.92;100.00
37202;BME280;37799;52.390;6.136;2024-01-06T07:55:51;100931.09;;;1.85;100.00
37202;BME280;37799;52.390;6.136;2024-01-06T07:58:17;100937.78;;;1.73;100.00
37202;BME280;37799;52.390;6.136;2024-01-06T08:00:42;100927.69;;;1.84;100.00
37202;BME280;37799;52.390;6.136;2024-01-06T08:03:07;100939.50;;;1.77;100.00
37202;BME280;37799;52.390;6.136;2024-01-06T08:05:33;100943.63;;;1.66;100.00
37202;BME280;37799;52.390;6.136;2024-01-06T08:07:58;100949.56;;;1.65;100.00
37202;BME280;37799;52.390;6.136;2024-01-06T08:10:23;100956.47;;;1.69;100.00
37202;BME280;37799;52.390;6.136;2024-01-06T08:12:49;100958.16;;;1.70;100.00
37202;BME280;37799;52.390;6.136;2024-01-06T08:15:14;100970.94;;;1.70;100.00
37202;BME280;37799;52.390;6.136;2024-01-06T08:17:39;100974.66;;;1.97;100.00
37202;BME280;37799;52.390;6.136;2024-01-06T08:20:09;100977.97;;;1.93;100.00
37202;BME280;37799;52.390;6.136;2024-01-06T08:22:34;100971.13;;;1.86;100.00
37202;BME280;37799;52.390;6.136;2024-01-06T08:25:00;100961.63;;;1.77;100.00
37202;BME280;37799;52.390;6.136;2024-01-06T08:27:25;100977.06;;;1.85;100.00
37202;BME280;37799;52.390;6.136;2024-01-06T08:29:50;100979.56;;;1.82;100.00
37202;BME280;37799;52.390;6.136;2024-01-06T08:32:16;100988.03;;;1.77;100.00
37202;BME280;37799;52.390;6.136;2024-01-06T08:34:41;100986.34;;;1.80;100.00
37202;BME280;37799;52.390;6.136;2024-01-06T08:37:07;100995.63;;;1.73;100.00
37202;BME280;37799;52.390;6.136;2024-01-06T08:39:32;100996.53;;;1.78;100.00
37202;BME280;37799;52.390;6.136;2024-01-06T08:41:58;100992.31;;;1.82;100.00
37202;BME280;37799;52.390;6.136;2024-01-06T08:44:23;101002.56;;;1.83;100.00
37202;BME280;37799;52.390;6.136;2024-01-06T08:46:49;100997.41;;;1.80;100.00
37202;BME280;37799;52.390;6.136;2024-01-06T08:49:15;101008.47;;;1.81;100.00
37202;BME280;37799;52.390;6.136;2024-01-06T08:51:40;101009.47;;;1.90;100.00
37202;BME280;37799;52.390;6.136;2024-01-06T08:54:06;101011.88;;;1.80;100.00
37202;BME280;37799;52.390;6.136;2024-01-06T08:56:33;101020.50;;;1.88;100.00
37202;BME280;37799;52.390;6.136;2024-01-06T08:58:58;101016.16;;;1.82;100.00
37202;BME280;37799;52.390;6.136;2024-01-06T09:01:24;101027.28;;;1.86;100.00
37202;BME280;37799;52.390;6.136;2024-01-06T09:03:49;101029.91;;;1.93;100.00
37202;BME280;37799;52.390;6.136;2024-01-06T09:06:15;101027.47;;;2.01;100.00
37202;BME280;37799;52.390;6.136;2024-01-06T09:08:40;101034.22;;;1.96;100.00
37202;BME280;37799;52.390;6.136;2024-01-06T09:11:05;101034.34;;;2.08;100.00
37202;BME280;37799;52.390;6.136;2024-01-06T09:13:31;101039.22;;;1.88;100.00
37202;BME280;37799;52.390;6.136;2024-01-06T09:15:57;101042.34;;;1.69;100.00
37202;BME280;37799;52.390;6.136;2024-01-06T09:18:22;101051.00;;;1.77;100.00
37202;BME280;37799;52.390;6.136;2024-01-06T09:20:48;101056.22;;;1.85;100.00
37202;BME280;37799;52.390;6.136;2024-01-06T09:23:13;101048.88;;;2.09;100.00
37202;BME280;37799;52.390;6.136;2024-01-06T09:25:38;101053.72;;;1.89;100.00
37202;BME280;37799;52.390;6.136;2024-01-06T09:28:05;101053.69;;;1.86;100.00
37202;BME280;37799;52.390;6.136;2024-01-06T09:30:30;101059.63;;;1.87;100.00
37202;BME280;37799;52.390;6.136;2024-01-06T09:32:56;101071.47;;;1.82;100.00
37202;BME280;37799;52.390;6.136;2024-01-06T09:35:21;101074.25;;;1.98;100.00
37202;BME280;37799;52.390;6.136;2024-01-06T09:37:46;101071.53;;;1.85;100.00
37202;BME280;37799;52.390;6.136;2024-01-06T09:40:13;101080.75;;;1.75;100.00
37202;BME280;37799;52.390;6.136;2024-01-06T09:42:39;101079.19;;;1.85;100.00
37202;BME280;37799;52.390;6.136;2024-01-06T09:45:05;101084.38;;;1.91;100.00
37202;BME280;37799;52.390;6.136;2024-01-06T09:47:34;101089.47;;;1.91;100.00
37202;BME280;37799;52.390;6.136;2024-01-06T09:50:01;101086.78;;;1.82;100.00
37202;BME280;37799;52.390;6.136;2024-01-06T09:52:28;101088.44;;;1.76;100.00
37202;BME280;37799;52.390;6.136;2024-01-06T09:54:56;101097.22;;;1.95;100.00
37202;BME280;37799;52.390;6.136;2024-01-06T09:57:22;101110.56;;;1.76;100.00
37202;BME280;37799;52.390;6.136;2024-01-06T09:59:48;101103.03;;;1.85;100.00
37202;BME280;37799;52.390;6.136;2024-01-06T10:02:15;101107.28;;;1.85;100.00
37202;BME280;37799;52.390;6.136;2024-01-06T10:04:41;101107.38;;;1.94;100.00
37202;BME280;37799;52.390;6.136;2024-01-06T10:07:07;101108.28;;;1.96;100.00
37202;BME280;37799;52.390;6.136;2024-01-06T10:09:32;101117.50;;;1.85;100.00
37202;BME280;37799;52.390;6.136;2024-01-06T10:11:58;101117.59;;;1.94;100.00
37202;BME280;37799;52.390;6.136;2024-01-06T10:14:25;101123.72;;;2.06;100.00
37202;BME280;37799;52.390;6.136;2024-01-06T10:16:53;101133.00;;;1.98;100.00
37202;BME280;37799;52.390;6.136;2024-01-06T10:19:19;101131.31;;;1.99;100.00
37202;BME280;37799;52.390;6.136;2024-01-06T10:21:44;101130.63;;;2.12;100.00
37202;BME280;37799;52.390;6.136;2024-01-06T10:24:10;101137.25;;;1.98;100.00
37202;BME280;37799;52.390;6.136;2024-01-06T10:26:35;101144.81;;;1.92;100.00
37202;BME280;37799;52.390;6.136;2024-01-06T10:29:01;101139.00;;;2.02;100.00
37202;BME280;37799;52.390;6.136;2024-01-06T10:31:26;101139.81;;;1.98;100.00
37202;BME280;37799;52.390;6.136;2024-01-06T10:33:52;101141.59;;;2.05;100.00
37202;BME280;37799;52.390;6.136;2024-01-06T10:36:17;101147.69;;;2.15;100.00
37202;BME280;37799;52.390;6.136;2024-01-06T10:38:44;101146.00;;;2.15;100.00
37202;BME280;37799;52.390;6.136;2024-01-06T10:41:11;101151.06;;;2.12;100.00
37202;BME280;37799;52.390;6.136;2024-01-06T10:43:37;101154.53;;;2.16;100.00
37202;BME280;37799;52.390;6.136;2024-01-06T10:46:09;101155.41;;;2.19;100.00
37202;BME280;37799;52.390;6.136;2024-01-06T10:48:40;101157.13;;;2.20;100.00
37202;BME280;37799;52.390;6.136;2024-01-06T10:51:08;101167.09;;;2.00;100.00
37202;BME280;37799;52.390;6.136;2024-01-06T10:53:34;101169.00;;;2.15;100.00
37202;BME280;37799;52.390;6.136;2024-01-06T10:56:07;101169.81;;;2.14;100.00
37202;BME280;37799;52.390;6.136;2024-01-06T10:58:34;101168.94;;;2.12;100.00
37202;BME280;37799;52.390;6.136;2024-01-06T11:01:03;101158.81;;;2.18;100.00
37202;BME280;37799;52.390;6.136;2024-01-06T11:03:29;101166.59;;;2.26;100.00
37202;BME280;37799;52.390;6.136;2024-01-06T11:05:54;101160.63;;;2.25;100.00
37202;BME280;37799;52.390;6.136;2024-01-06T11:08:21;101165.72;;;2.25;100.00
37202;BME280;37799;52.390;6.136;2024-01-06T11:10:47;101170.91;;;2.31;100.00
37202;BME280;37799;52.390;6.136;2024-01-06T11:13:14;101170.66;;;2.13;100.00
37202;BME280;37799;52.390;6.136;2024-01-06T11:15:52;101180.88;;;2.13;100.00
37202;BME280;37799;52.390;6.136;2024-01-06T11:18:35;101177.50;;;2.14;100.00
37202;BME280;37799;52.390;6.136;2024-01-06T11:23:42;101190.59;;;2.39;100.00
37202;BME280;37799;52.390;6.136;2024-01-06T11:26:08;101189.66;;;2.32;100.00
37202;BME280;37799;52.390;6.136;2024-01-06T11:28:46;101187.72;;;2.14;100.00
37202;BME280;37799;52.390;6.136;2024-01-06T11:31:12;101185.00;;;2.03;100.00
37202;BME280;37799;52.390;6.136;2024-01-06T11:33:44;101187.56;;;2.05;100.00
37202;BME280;37799;52.390;6.136;2024-01-06T11:36:14;101191.28;;;2.25;100.00
37202;BME280;37799;52.390;6.136;2024-01-06T11:38:40;101183.66;;;2.28;100.00
37202;BME280;37799;52.390;6.136;2024-01-06T11:41:07;101193.72;;;2.18;100.00
37202;BME280;37799;52.390;6.136;2024-01-06T11:43:34;101198.75;;;2.12;100.00
37202;BME280;37799;52.390;6.136;2024-01-06T11:46:01;101193.69;;;2.15;100.00
37202;BME280;37799;52.390;6.136;2024-01-06T11:48:29;101195.50;;;2.23;100.00
37202;BME280;37799;52.390;6.136;2024-01-06T11:50:56;101196.28;;;2.19;100.00
37202;BME280;37799;52.390;6.136;2024-01-06T11:53:23;101203.88;;;2.13;100.00
37202;BME280;37799;52.390;6.136;2024-01-06T11:55:51;101204.81;;;2.21;100.00
37202;BME280;37799;52.390;6.136;2024-01-06T11:58:17;101194.66;;;2.24;100.00
37202;BME280;37799;52.390;6.136;2024-01-06T12:00:42;101194.56;;;2.18;100.00
37202;BME280;37799;52.390;6.136;2024-01-06T12:03:08;101196.25;;;2.16;100.00
37202;BME280;37799;52.390;6.136;2024-01-06T12:05:33;101199.69;;;2.18;100.00
37202;BME280;37799;52.390;6.136;2024-01-06T12:08:00;101200.78;;;2.35;100.00
37202;BME280;37799;52.390;6.136;2024-01-06T12:10:28;101198.22;;;2.35;100.00
37202;BME280;37799;52.390;6.136;2024-01-06T12:12:58;101200.81;;;2.39;100.00
37202;BME280;37799;52.390;6.136;2024-01-06T12:15:24;101204.03;;;2.22;100.00
37202;BME280;37799;52.390;6.136;2024-01-06T12:17:50;101207.31;;;2.15;100.00
37202;BME280;37799;52.390;6.136;2024-01-06T12:20:15;101208.84;;;2.04;100.00
37202;BME280;37799;52.390;6.136;2024-01-06T12:22:40;101204.56;;;2.01;100.00
37202;BME280;37799;52.390;6.136;2024-01-06T12:25:06;101207.31;;;2.15;100.00
37202;BME280;37799;52.390;6.136;2024-01-06T12:27:32;101209.31;;;2.34;100.00
37202;BME280;37799;52.390;6.136;2024-01-06T12:29:58;101202.16;;;2.11;100.00
37202;BME280;37799;52.390;6.136;2024-01-06T12:32:23;101205.56;;;2.11;100.00
37202;BME280;37799;52.390;6.136;2024-01-06T12:34:50;101209.94;;;2.21;100.00
37202;BME280;37799;52.390;6.136;2024-01-06T12:37:16;101206.47;;;2.16;100.00
37202;BME280;37799;52.390;6.136;2024-01-06T12:39:42;101209.16;;;2.25;100.00
37202;BME280;37799;52.390;6.136;2024-01-06T12:42:10;101212.41;;;2.15;100.00
37202;BME280;37799;52.390;6.136;2024-01-06T12:44:35;101211.75;;;2.28;100.00